Time;durP1;ratioP1;P1;durP2;ratioP2;P2;SDS_P1;SDS_P2;PMS_P1;PMS_P2;Temp;Humidity;BMP_temperature;BMP_pressure;BME280_temperature;BME280_humidity;BME280_pressure;Samples;Min_cycle;Max_cycle;Signal;HPM_P1;HPM_P2
2023/07/06 00:01:02;;;;;;;9.02;5.97;;;;;;;13.95;100.00;96792.72;4966099;28;20129;-64
2023/07/06 00:03:28;;;;;;;10.68;5.93;;;;;;;13.99;100.00;96792.72;4943139;28;20046;-62
2023/07/06 00:05:54;;;;;;;8.23;5.97;;;;;;;14.10;100.00;96801.03;4964770;28;20038;-62
2023/07/06 00:08:20;;;;;;;11.27;5.90;;;;;;;14.31;100.00;96801.09;4961695;28;20082;-62
2023/07/06 00:10:49;;;;;;;8.50;5.68;;;;;;;14.47;100.00;96805.47;4966165;28;20038;-62
2023/07/06 00:13:15;;;;;;;10.05;5.63;;;;;;;14.53;100.00;96807.47;4960395;28;20050;-65
2023/07/06 00:15:41;;;;;;;10.13;5.47;;;;;;;14.70;100.00;96807.91;4965247;28;20443;-65
2023/07/06 00:18:08;;;;;;;8.15;5.25;;;;;;;14.95;100.00;96801.66;4960045;28;20039;-62
2023/07/06 00:20:38;;;;;;;12.88;5.72;;;;;;;15.00;100.00;96804.00;4965139;28;20053;-64
2023/07/06 00:23:09;;;;;;;9.73;5.70;;;;;;;14.89;100.00;96795.72;4960997;28;20047;-70
2023/07/06 00:25:35;;;;;;;11.30;5.78;;;;;;;14.70;100.00;96797.66;4962726;28;20046;-64
2023/07/06 00:28:02;;;;;;;9.73;5.07;;;;;;;14.60;100.00;96803.94;4965824;28;20055;-62
2023/07/06 00:33:11;;;;;;;8.70;5.38;;;;;;;14.78;100.00;96795.69;4959568;28;20175;-65
2023/07/06 00:35:39;;;;;;;8.38;5.60;;;;;;;14.83;100.00;96800.06;4966100;28;20491;-64
2023/07/06 00:38:09;;;;;;;9.27;5.70;;;;;;;14.87;100.00;96801.66;4959934;28;20484;-66
2023/07/06 00:40:38;;;;;;;8.90;5.30;;;;;;;15.00;100.00;96809.50;4965478;28;20125;-62
2023/07/06 00:43:04;;;;;;;8.63;6.00;;;;;;;15.11;100.00;96799.28;4943634;28;20039;-69
2023/07/06 00:45:30;;;;;;;10.15;5.93;;;;;;;15.09;100.00;96796.94;4965045;28;20120;-66
2023/07/06 00:47:59;;;;;;;9.05;6.05;;;;;;;15.17;100.00;96785.88;4964807;28;20043;-64
2023/07/06 00:50:28;;;;;;;10.73;5.75;;;;;;;15.17;100.00;96788.66;4960986;28;20047;-63
2023/07/06 00:53:04;;;;;;;9.40;5.05;;;;;;;15.14;100.00;96786.66;4964956;28;20039;-63
2023/07/06 00:55:33;;;;;;;9.88;5.60;;;;;;;15.07;100.00;96781.94;4946609;28;20114;-61
2023/07/06 00:58:09;;;;;;;8.40;5.40;;;;;;;14.99;100.00;96775.63;4965362;28;20439;-62
2023/07/06 01:00:37;;;;;;;12.35;5.70;;;;;;;14.90;100.00;96781.53;4964475;28;20035;-62
2023/07/06 01:03:06;;;;;;;11.27;5.60;;;;;;;14.71;100.00;96781.91;4963802;28;20492;-68
2023/07/06 01:05:32;;;;;;;8.13;5.53;;;;;;;14.53;100.00;96781.84;4964689;28;20047;-61
2023/07/06 01:08:04;;;;;;;8.07;5.22;;;;;;;14.60;100.00;96781.13;4964200;28;20051;-61
2023/07/06 01:10:31;;;;;;;9.48;5.75;;;;;;;14.62;100.00;96781.50;4963684;28;20038;-64
2023/07/06 01:12:59;;;;;;;8.63;5.15;;;;;;;14.61;100.00;96786.25;4964822;28;20038;-63
2023/07/06 01:15:30;;;;;;;9.07;5.75;;;;;;;14.42;100.00;96784.59;4959404;28;20047;-63
2023/07/06 01:18:06;;;;;;;10.48;6.30;;;;;;;14.04;100.00;96778.56;4947444;28;20089;-62
2023/07/06 01:20:44;;;;;;;11.85;6.70;;;;;;;13.74;100.00;96779.63;4963909;28;20070;-62
2023/07/06 01:23:20;;;;;;;10.40;6.30;;;;;;;13.68;100.00;96783.13;4959968;28;20042;-65
2023/07/06 01:26:10;;;;;;;9.88;6.40;;;;;;;13.74;100.00;96782.38;4957317;28;20043;-63
2023/07/06 01:29:00;;;;;;;10.55;6.57;;;;;;;13.86;100.00;96783.97;4964479;28;20516;-65
2023/07/06 01:31:51;;;;;;;8.98;6.25;;;;;;;13.96;100.00;96794.25;4960689;28;20046;-62
2023/07/06 01:34:35;;;;;;;9.77;6.10;;;;;;;14.03;100.00;96796.28;4959296;28;20039;-61
2023/07/06 01:37:11;;;;;;;12.20;6.93;;;;;;;13.97;100.00;96795.03;4965528;28;20047;-61
2023/07/06 01:39:36;;;;;;;9.23;6.28;;;;;;;13.76;100.00;96790.25;4978859;28;20051;-65
2023/07/06 01:42:14;;;;;;;12.73;6.10;;;;;;;13.75;100.00;96792.19;4969144;28;20053;-69
2023/07/06 01:44:42;;;;;;;10.68;6.50;;;;;;;13.74;100.00;96796.13;4971108;28;20043;-67
2023/07/06 01:47:09;;;;;;;9.23;6.18;;;;;;;13.78;100.00;96782.38;4966652;28;20043;-65
2023/07/06 01:49:35;;;;;;;10.82;6.20;;;;;;;13.94;100.00;96784.81;4972425;28;20116;-65
2023/07/06 01:52:18;;;;;;;10.65;6.00;;;;;;;13.97;100.00;96792.28;4975253;28;20570;-66
2023/07/06 01:55:08;;;;;;;9.45;5.75;;;;;;;13.90;100.00;96798.56;4976953;28;20074;-64
2023/07/06 01:57:41;;;;;;;8.98;6.05;;;;;;;13.90;100.00;96797.78;4975921;28;20046;-66
2023/07/06 02:00:12;;;;;;;12.05;6.60;;;;;;;13.88;100.00;96794.63;4973354;28;20098;-65
2023/07/06 02:02:38;;;;;;;9.20;6.10;;;;;;;13.86;100.00;96783.19;4978610;28;20046;-65
2023/07/06 02:05:05;;;;;;;9.60;5.85;;;;;;;13.86;100.00;96780.44;4957479;28;20070;-68
2023/07/06 02:07:32;;;;;;;9.93;5.68;;;;;;;13.82;100.00;96780.44;4970468;28;20050;-65
2023/07/06 02:09:57;;;;;;;10.73;6.03;;;;;;;13.77;100.00;96776.09;4975433;28;20093;-66
2023/07/06 02:12:22;;;;;;;12.93;6.05;;;;;;;13.51;100.00;96768.09;4964660;28;20675;-64
2023/07/06 02:14:48;;;;;;;13.23;6.90;;;;;;;12.84;100.00;96769.94;4946277;28;20046;-59
2023/07/06 02:17:15;;;;;;;11.52;6.47;;;;;;;12.77;100.00;96769.88;4958789;28;20095;-62
2023/07/06 02:19:42;;;;;;;11.40;6.25;;;;;;;12.86;100.00;96772.31;4964001;28;20054;-62
2023/07/06 02:22:08;;;;;;;13.63;7.13;;;;;;;13.01;100.00;96763.78;4958458;28;20122;-63
2023/07/06 02:24:34;;;;;;;9.48;5.82;;;;;;;13.17;100.00;96774.50;4963008;28;20133;-61
2023/07/06 02:26:59;;;;;;;10.45;5.95;;;;;;;13.23;100.00;96769.44;4956143;28;20135;-64
2023/07/06 02:29:25;;;;;;;11.25;6.43;;;;;;;13.28;100.00;96776.56;4958886;28;20761;-64
2023/07/06 02:31:51;;;;;;;11.52;6.25;;;;;;;13.27;100.00;96764.78;4963317;28;20039;-61
2023/07/06 02:34:24;;;;;;;11.60;5.72;;;;;;;13.26;100.00;96765.94;4958792;28;20137;-64
2023/07/06 02:36:53;;;;;;;9.27;6.10;;;;;;;13.29;100.00;96765.16;4963178;28;20093;-65
2023/07/06 02:39:20;;;;;;;9.07;5.43;;;;;;;13.25;100.00;96756.09;4957985;28;20039;-65
2023/07/06 02:41:46;;;;;;;13.32;5.93;;;;;;;13.19;100.00;96763.91;4962850;28;20039;-65
2023/07/06 02:44:12;;;;;;;12.93;6.05;;;;;;;13.04;100.00;96767.75;4958352;28;20045;-65
2023/07/06 02:46:37;;;;;;;10.88;5.72;;;;;;;12.96;100.00;96760.59;4962760;28;20047;-65
2023/07/06 02:49:03;;;;;;;12.68;5.72;;;;;;;12.96;100.00;96758.66;4961918;28;20051;-66
2023/07/06 02:51:35;;;;;;;10.32;5.95;;;;;;;12.95;100.00;96756.28;4961776;28;20484;-66
2023/07/06 02:54:00;;;;;;;9.90;6.15;;;;;;;12.99;100.00;96760.63;4963386;28;20580;-66
2023/07/06 02:56:26;;;;;;;19.13;6.05;;;;;;;13.03;100.00;96757.13;4957622;28;20158;-65
2023/07/06 02:58:52;;;;;;;9.38;5.40;;;;;;;12.87;100.00;96763.66;4963275;28;20523;-66
2023/07/06 03:01:18;;;;;;;10.73;5.68;;;;;;;12.79;100.00;96765.56;4957711;28;20097;-67
2023/07/06 03:03:44;;;;;;;10.07;5.55;;;;;;;12.91;100.00;96772.75;4962971;28;20572;-65
2023/07/06 03:06:09;;;;;;;14.10;5.57;;;;;;;12.68;100.00;96761.16;4957669;28;20043;-65
2023/07/06 03:08:35;;;;;;;12.32;6.20;;;;;;;12.59;100.00;96765.00;4966206;28;20043;-65
2023/07/06 03:11:00;;;;;;;9.73;5.28;;;;;;;12.54;100.00;96764.56;4967696;28;20121;-65
2023/07/06 03:13:28;;;;;;;8.40;5.00;;;;;;;12.65;100.00;96762.69;4962514;28;20102;-65
2023/07/06 03:15:56;;;;;;;10.77;5.47;;;;;;;12.68;100.00;96761.16;4962997;28;20551;-65
2023/07/06 03:18:21;;;;;;;11.90;4.53;;;;;;;12.70;100.00;96767.84;4958439;28;22134;-66
2023/07/06 03:20:48;;;;;;;7.72;5.28;;;;;;;12.75;100.00;96767.50;4962708;28;20043;-66
2023/07/06 03:23:14;;;;;;;11.18;4.70;;;;;;;12.76;100.00;96757.28;4956990;28;20407;-65
2023/07/06 03:25:39;;;;;;;7.75;5.22;;;;;;;12.78;100.00;96760.44;4962068;28;20516;-66
2023/07/06 03:28:05;;;;;;;8.40;4.97;;;;;;;12.77;100.00;96767.91;4957799;28;20115;-71
2023/07/06 03:30:31;;;;;;;9.63;5.20;;;;;;;12.72;100.00;96772.97;4970909;28;20047;-66
2023/07/06 03:32:59;;;;;;;10.45;5.35;;;;;;;12.71;100.00;96765.88;4962608;28;20043;-65
2023/07/06 03:35:25;;;;;;;11.38;5.45;;;;;;;12.47;100.00;96768.00;4959188;28;20579;-65
2023/07/06 03:37:53;;;;;;;13.30;5.53;;;;;;;12.37;100.00;96765.94;4963235;28;20054;-65
2023/07/06 03:40:20;;;;;;;10.20;5.68;;;;;;;12.38;100.00;96762.81;4958277;28;20047;-65
2023/07/06 03:42:46;;;;;;;15.40;5.60;;;;;;;12.49;100.00;96762.94;4962070;28;20404;-66
2023/07/06 03:45:13;;;;;;;9.07;5.35;;;;;;;12.55;100.00;96766.94;4957386;28;20065;-65
2023/07/06 03:47:42;;;;;;;12.63;5.55;;;;;;;12.68;100.00;96769.41;4962510;28;20054;-65
2023/07/06 03:50:09;;;;;;;14.63;6.40;;;;;;;12.71;100.00;96774.13;4957627;28;20470;-65
2023/07/06 03:52:39;;;;;;;15.35;5.65;;;;;;;12.83;100.00;96776.59;4961716;28;20133;-65
2023/07/06 03:55:26;;;;;;;;;;;;;;;12.97;100.00;96765.72;4939229;28;20404;-66
2023/07/06 03:57:51;;;;;;;10.05;5.78;;;;;;;13.12;100.00;96769.34;4963134;28;19918;-65
2023/07/06 04:00:22;;;;;;;15.77;5.53;;;;;;;12.90;100.00;96771.16;4959791;28;20050;-66
2023/07/06 04:02:53;;;;;;;11.82;5.30;;;;;;;12.58;100.00;96774.41;4965603;28;20074;-66
2023/07/06 04:05:32;;;;;;;14.55;5.20;;;;;;;12.69;100.00;96777.25;4960287;28;20380;-66
2023/07/06 04:08:03;;;;;;;9.60;6.20;;;;;;;12.75;100.00;96775.75;4966099;28;20074;-65
2023/07/06 04:10:30;;;;;;;11.82;6.13;;;;;;;12.89;100.00;96783.34;4964840;28;20101;-65
2023/07/06 04:12:56;;;;;;;11.25;6.28;;;;;;;12.96;100.00;96783.41;4965482;28;20135;-66
2023/07/06 04:15:23;;;;;;;8.60;5.60;;;;;;;13.31;100.00;96781.31;4960514;28;20065;-65
2023/07/06 04:17:48;;;;;;;9.73;5.65;;;;;;;13.56;100.00;96789.75;4965392;28;20511;-65
2023/07/06 04:20:20;;;;;;;10.07;5.88;;;;;;;13.81;100.00;96783.56;4960828;28;20047;-66
2023/07/06 04:22:51;;;;;;;12.55;5.60;;;;;;;13.74;100.00;96787.88;4964870;28;20049;-66
2023/07/06 04:25:19;;;;;;;11.27;6.05;;;;;;;13.44;100.00;96787.31;4961565;28;20034;-66
2023/07/06 04:27:45;;;;;;;9.00;6.25;;;;;;;13.58;100.00;96790.16;4965267;28;20053;-66
2023/07/06 04:30:11;;;;;;;9.80;5.97;;;;;;;13.71;100.00;96790.59;4959976;28;20038;-65
2023/07/06 04:32:37;;;;;;;11.80;6.40;;;;;;;13.98;100.00;96788.38;4964315;28;20043;-65
2023/07/06 04:35:03;;;;;;;9.77;5.57;;;;;;;14.37;100.00;96786.94;4962744;28;20778;-65
2023/07/06 04:37:29;;;;;;;10.55;5.65;;;;;;;14.63;100.00;96786.63;4964310;28;20047;-66
2023/07/06 04:39:54;;;;;;;10.68;5.20;;;;;;;14.83;100.00;96789.81;4965130;28;20459;-65
2023/07/06 04:42:20;;;;;;;9.23;5.13;;;;;;;15.02;100.00;96780.38;4958620;28;20050;-65
2023/07/06 04:44:47;;;;;;;9.35;5.18;;;;;;;15.20;100.00;96785.88;4965041;28;20039;-66
2023/07/06 04:47:13;;;;;;;9.52;5.55;;;;;;;15.39;100.00;96781.13;4942518;28;20034;-66
2023/07/06 04:49:38;;;;;;;9.52;5.82;;;;;;;15.91;100.00;96780.66;4965440;28;20408;-66
2023/07/06 04:52:04;;;;;;;11.25;5.43;;;;;;;16.39;100.00;96778.06;4961364;28;20062;-65
2023/07/06 04:54:30;;;;;;;12.40;5.97;;;;;;;16.94;100.00;96778.53;4965174;28;20042;-65
2023/07/06 04:56:56;;;;;;;9.18;5.47;;;;;;;16.55;100.00;96782.34;4965020;28;20043;-66
2023/07/06 04:59:21;;;;;;;12.65;5.32;;;;;;;15.84;100.00;96789.75;4960106;28;20153;-66
2023/07/06 05:01:47;;;;;;;10.65;6.43;;;;;;;15.85;100.00;96778.31;4964091;28;20133;-66
2023/07/06 05:04:12;;;;;;;10.80;6.38;;;;;;;16.98;100.00;96765.50;4959021;28;20571;-66
2023/07/06 05:06:38;;;;;;;11.48;6.28;;;;;;;16.48;100.00;96772.09;4964695;28;20053;-65
2023/07/06 05:09:03;;;;;;;9.50;6.07;;;;;;;16.72;100.00;96783.41;4962626;28;20455;-66
2023/07/06 05:11:30;;;;;;;9.75;5.93;;;;;;;17.30;100.00;96778.25;4962936;28;20039;-65
2023/07/06 05:13:56;;;;;;;9.38;5.45;;;;;;;16.77;100.00;96783.00;4963729;28;20043;-66
2023/07/06 05:16:23;;;;;;;12.38;6.18;;;;;;;16.42;100.00;96782.81;4959412;28;20953;-65
2023/07/06 05:18:49;;;;;;;11.75;6.20;;;;;;;16.35;100.00;96776.50;4972364;28;20043;-65
2023/07/06 05:21:14;;;;;;;8.75;6.03;;;;;;;16.27;100.00;96772.22;4961562;28;20034;-65
2023/07/06 05:23:40;;;;;;;16.08;6.68;;;;;;;16.74;100.00;96779.03;4963867;28;20053;-66
2023/07/06 05:26:07;;;;;;;10.43;6.15;;;;;;;17.01;100.00;96784.03;4946612;28;20043;-66
2023/07/06 05:28:33;;;;;;;9.63;6.13;;;;;;;16.90;100.00;96770.28;4961674;28;20399;-66
2023/07/06 05:31:02;;;;;;;11.75;6.00;;;;;;;17.17;100.00;96769.66;4975874;28;20053;-67
2023/07/06 05:33:30;;;;;;;8.68;5.93;;;;;;;18.06;100.00;96786.59;4968217;28;20050;-66
2023/07/06 05:35:55;;;;;;;8.60;5.65;;;;;;;19.41;100.00;96785.88;4965041;28;20065;-66
2023/07/06 05:38:21;;;;;;;8.43;4.97;;;;;;;21.49;92.15;96789.09;4959118;28;20987;-66
2023/07/06 05:40:46;;;;;;;7.95;5.25;;;;;;;21.79;84.49;96800.25;4963817;28;20684;-66
2023/07/06 05:43:12;;;;;;;10.43;5.18;;;;;;;20.28;92.95;96787.84;4958757;28;20077;-66
2023/07/06 05:45:37;;;;;;;8.27;5.45;;;;;;;19.52;97.50;96793.22;4963610;28;20035;-65
2023/07/06 05:48:03;;;;;;;9.45;5.78;;;;;;;19.87;90.60;96800.16;4961473;28;20205;-66
2023/07/06 05:50:29;;;;;;;9.10;5.57;;;;;;;20.21;91.26;96790.75;4961360;28;20039;-65
2023/07/06 05:52:54;;;;;;;10.63;5.57;;;;;;;20.00;98.11;96798.31;4963525;28;20387;-65
2023/07/06 05:55:20;;;;;;;7.95;5.10;;;;;;;21.11;88.90;96800.72;4957956;28;20123;-66
2023/07/06 05:57:46;;;;;;;8.63;5.30;;;;;;;21.72;84.60;96804.81;4968006;28;20035;-65
2023/07/06 06:00:15;;;;;;;9.18;5.13;;;;;;;24.14;68.17;96820.63;4972905;28;20071;-65
2023/07/06 06:02:42;;;;;;;9.98;5.03;;;;;;;24.68;63.29;96835.47;4967853;28;20042;-65
2023/07/06 06:05:08;;;;;;;9.68;5.88;;;;;;;23.89;69.06;96825.06;4958306;28;20038;-64
2023/07/06 06:07:33;;;;;;;8.90;4.72;;;;;;;24.51;65.97;96824.47;4963243;28;20158;-65
2023/07/06 06:10:02;;;;;;;12.40;5.57;;;;;;;23.83;67.32;96832.47;4963281;28;20039;-66
2023/07/06 06:12:28;;;;;;;;;;;;;;;24.73;63.80;96838.47;4960036;28;20134;-66
2023/07/06 06:14:53;;;;;;;7.85;4.88;;;;;;;23.59;67.70;96827.25;4964300;28;20431;-67
2023/07/06 06:17:19;;;;;;;8.10;5.43;;;;;;;25.06;60.86;96848.44;4958692;28;20049;-67
2023/07/06 06:19:46;;;;;;;8.05;4.70;;;;;;;24.54;59.79;96845.19;4963297;28;20061;-68
2023/07/06 06:22:14;;;;;;;7.97;5.40;;;;;;;22.06;76.29;96833.41;4957183;28;20100;-66
2023/07/06 06:24:39;;;;;;;11.93;5.90;;;;;;;23.84;69.36;96840.44;4962978;28;20054;-66
2023/07/06 06:27:05;;;;;;;8.27;5.72;;;;;;;25.11;61.77;96837.41;4957960;28;20039;-67
2023/07/06 06:29:32;;;;;;;7.72;5.07;;;;;;;24.26;66.63;96833.78;4963369;28;20046;-66
2023/07/06 06:31:59;;;;;;;10.23;5.45;;;;;;;25.94;59.19;96836.88;4963657;28;20081;-67
2023/07/06 06:34:24;;;;;;;10.32;5.07;;;;;;;26.68;54.87;96846.06;4957859;28;20241;-66
2023/07/06 06:36:50;;;;;;;9.02;5.30;;;;;;;26.72;54.15;96840.28;4962060;28;20055;-67
2023/07/06 06:39:15;;;;;;;8.02;5.22;;;;;;;26.32;55.59;96838.44;4958137;28;20039;-66
2023/07/06 06:41:41;;;;;;;8.40;5.60;;;;;;;26.44;54.00;96845.94;4963326;28;20432;-66
2023/07/06 06:44:06;;;;;;;9.98;5.53;;;;;;;26.36;52.99;96849.53;4957638;28;20053;-65
2023/07/06 06:46:32;;;;;;;10.27;4.78;;;;;;;26.37;53.76;96835.03;4962098;28;20045;-68
2023/07/06 06:48:58;;;;;;;8.25;5.13;;;;;;;26.58;51.95;96838.09;4961623;28;20364;-68
2023/07/06 06:51:24;;;;;;;10.35;5.30;;;;;;;27.07;50.69;96845.50;4958111;28;20611;-68
2023/07/06 06:53:49;;;;;;;7.88;4.95;;;;;;;27.60;49.20;96839.38;4962483;28;20604;-66
2023/07/06 06:56:15;;;;;;;8.95;4.95;;;;;;;27.77;48.13;96848.16;4959251;28;20075;-67
2023/07/06 06:58:41;;;;;;;7.20;4.65;;;;;;;27.61;48.80;96843.72;4962324;28;20074;-68
2023/07/06 07:01:08;;;;;;;8.70;5.05;;;;;;;28.57;45.01;96850.56;4958412;28;20047;-68
2023/07/06 07:03:34;;;;;;;8.57;5.35;;;;;;;26.28;49.87;96832.22;4969869;28;20054;-67
2023/07/06 07:06:11;;;;;;;9.57;5.32;;;;;;;24.02;57.48;96831.41;4966774;28;20125;-68
2023/07/06 07:08:57;;;;;;;9.05;5.10;;;;;;;24.75;55.72;96838.00;4962333;28;20087;-67
2023/07/06 07:11:23;;;;;;;6.35;4.70;;;;;;;23.89;57.91;96824.28;4957121;28;20053;-67
2023/07/06 07:13:49;;;;;;;8.63;5.10;;;;;;;23.38;62.43;96823.16;4961104;28;20377;-67
2023/07/06 07:16:15;;;;;;;7.75;4.88;;;;;;;24.30;58.20;96823.22;4958809;28;20047;-67
2023/07/06 07:18:43;;;;;;;9.23;5.50;;;;;;;23.50;60.51;96809.59;4967785;28;20405;-68
2023/07/06 07:21:09;;;;;;;7.18;4.90;;;;;;;23.24;62.29;96804.81;4965749;28;20512;-67
2023/07/06 07:23:47;;;;;;;8.20;5.43;;;;;;;22.37;62.44;96808.66;4968196;28;20054;-67
2023/07/06 07:26:18;;;;;;;12.82;7.72;;;;;;;22.71;61.39;96812.84;4955362;28;20050;-68
2023/07/06 07:28:48;;;;;;;9.40;6.65;;;;;;;22.50;57.63;96819.84;4960700;28;20455;-68
2023/07/06 07:31:15;;;;;;;9.18;4.80;;;;;;;23.25;55.44;96819.59;4957369;28;20133;-68
2023/07/06 07:33:41;;;;;;;9.75;4.63;;;;;;;24.23;50.70;96829.09;4963708;28;20070;-68
2023/07/06 07:36:09;;;;;;;8.43;4.47;;;;;;;25.55;45.66;96834.47;4960999;28;20047;-67
2023/07/06 07:38:36;;;;;;;9.77;4.50;;;;;;;27.47;40.38;96830.34;4966358;28;20129;-67
2023/07/06 07:41:03;;;;;;;6.50;4.00;;;;;;;28.27;38.35;96836.41;4965579;28;20073;-67
2023/07/06 07:43:35;;;;;;;5.35;4.10;;;;;;;27.14;39.54;96831.13;4946073;28;20054;-68
2023/07/06 07:46:05;;;;;;;8.75;4.25;;;;;;;25.93;42.55;96824.91;4965459;28;20090;-68
2023/07/06 07:48:34;;;;;;;10.45;4.45;;;;;;;27.40;40.76;96825.84;4965055;28;20134;-67
2023/07/06 07:51:03;;;;;;;7.60;3.88;;;;;;;27.60;39.62;96830.13;4965850;28;20046;-68
2023/07/06 07:53:35;;;;;;;7.57;3.92;;;;;;;29.14;36.84;96826.94;4963917;28;20043;-66
2023/07/06 07:56:01;;;;;;;8.40;4.20;;;;;;;29.60;35.64;96836.84;4966143;28;20083;-66
2023/07/06 07:58:27;;;;;;;5.10;3.78;;;;;;;26.96;38.90;96831.19;4960231;28;20200;-66
2023/07/06 08:00:57;;;;;;;5.88;4.05;;;;;;;27.07;38.69;96829.41;4965383;28;20039;-67
2023/07/06 08:03:23;;;;;;;8.38;4.10;;;;;;;25.86;39.87;96822.38;4961268;28;20795;-66
2023/07/06 08:05:53;;;;;;;6.07;3.72;;;;;;;24.97;43.51;96833.16;4965063;28;20516;-66
2023/07/06 08:08:19;;;;;;;10.52;3.88;;;;;;;24.11;43.64;96821.53;4943578;28;20039;-68
2023/07/06 08:10:45;;;;;;;7.03;3.83;;;;;;;24.00;45.70;96817.09;4964709;28;20039;-66
2023/07/06 08:13:10;;;;;;;8.90;4.22;;;;;;;23.59;45.35;96821.66;4960297;28;20114;-66
2023/07/06 08:15:39;;;;;;;9.75;4.28;;;;;;;24.72;44.08;96820.13;4966067;28;20042;-66
2023/07/06 08:18:08;;;;;;;5.87;3.60;;;;;;;26.37;41.04;96831.44;4959998;28;20516;-67
2023/07/06 08:20:34;;;;;;;7.70;3.92;;;;;;;27.36;38.17;96828.06;4965447;28;20051;-67
2023/07/06 08:23:06;;;;;;;6.75;4.20;;;;;;;24.54;43.24;96832.00;4964199;28;20061;-68
2023/07/06 08:25:53;;;;;;;8.05;3.90;;;;;;;24.60;43.91;96821.75;4963773;28;20049;-68
2023/07/06 08:28:22;;;;;;;6.90;3.92;;;;;;;26.46;40.73;96842.66;4959737;28;20046;-68
2023/07/06 08:30:52;;;;;;;8.20;3.97;;;;;;;27.79;38.65;96836.44;4964728;28;20201;-67
2023/07/06 08:33:21;;;;;;;6.53;3.70;;;;;;;28.13;37.72;96839.97;4960037;28;20129;-68
2023/07/06 08:35:47;;;;;;;7.20;4.25;;;;;;;27.36;37.77;96844.94;4964316;28;20497;-68
2023/07/06 08:38:13;;;;;;;7.97;3.88;;;;;;;27.64;38.16;96842.78;4960350;28;20050;-68
2023/07/06 08:40:41;;;;;;;9.27;4.10;;;;;;;27.75;38.00;96849.88;4965386;28;20050;-68
2023/07/06 08:43:18;;;;;;;10.15;5.10;;;;;;;26.67;47.26;96838.13;4963509;28;20869;-67
2023/07/06 08:45:46;;;;;;;9.50;5.80;;;;;;;26.22;49.04;96832.06;4966532;28;20110;-67
2023/07/06 08:48:14;;;;;;;8.30;5.43;;;;;;;25.47;51.53;96824.00;4959880;28;20065;-68
2023/07/06 08:50:45;;;;;;;11.60;5.30;;;;;;;25.78;50.72;96829.50;4964637;28;20064;-67
2023/07/06 08:53:14;;;;;;;11.60;5.35;;;;;;;26.10;50.90;96822.56;4958696;28;20391;-67
2023/07/06 08:55:42;;;;;;;9.88;6.25;;;;;;;26.09;51.67;96829.44;4965023;28;20097;-67
2023/07/06 08:58:12;;;;;;;9.77;6.20;;;;;;;24.52;53.87;96826.00;4958968;28;20061;-68
2023/07/06 09:00:38;;;;;;;16.52;5.90;;;;;;;24.81;53.76;96830.56;4963907;28;20113;-67
2023/07/06 09:03:08;;;;;;;8.93;5.28;;;;;;;25.32;53.36;96819.00;4959709;28;20043;-67
2023/07/06 09:05:37;;;;;;;9.75;5.20;;;;;;;25.31;52.94;96819.44;4964027;28;20133;-68
2023/07/06 09:08:03;;;;;;;11.32;4.85;;;;;;;25.11;53.42;96823.41;4961435;28;20038;-67
2023/07/06 09:10:30;;;;;;;11.50;5.30;;;;;;;25.25;51.84;96824.88;4962435;28;20046;-67
2023/07/06 09:13:36;;;;;;;9.40;5.20;;;;;;;25.38;52.38;96824.75;4963190;28;20047;-68
2023/07/06 09:16:03;;;;;;;11.27;5.75;;;;;;;24.96;52.50;96830.81;4968635;28;20038;-67
2023/07/06 09:18:29;;;;;;;9.90;5.75;;;;;;;25.44;52.27;96833.34;4976524;28;20050;-67
2023/07/06 09:20:57;;;;;;;7.90;5.13;;;;;;;25.54;51.03;96827.28;4967817;28;20435;-67
2023/07/06 09:23:24;;;;;;;11.25;5.90;;;;;;;25.48;51.20;96826.34;4959429;28;20478;-68
2023/07/06 09:25:50;;;;;;;8.15;5.55;;;;;;;25.82;50.43;96826.56;4959924;28;20081;-67
2023/07/06 09:28:19;;;;;;;9.25;5.20;;;;;;;25.58;49.33;96820.75;4945259;28;20121;-68
2023/07/06 09:30:47;;;;;;;7.60;5.32;;;;;;;25.66;49.04;96827.63;4962659;28;20492;-68
2023/07/06 09:33:20;;;;;;;9.37;4.80;;;;;;;26.03;48.68;96822.88;4958637;28;20113;-67
2023/07/06 09:35:52;;;;;;;9.30;4.78;;;;;;;26.20;49.53;96811.31;4963293;28;20492;-67
2023/07/06 09:38:19;;;;;;;7.88;5.15;;;;;;;26.58;47.51;96821.25;4959381;28;20060;-67
2023/07/06 09:40:46;;;;;;;10.38;5.38;;;;;;;26.05;48.87;96825.97;4964367;28;20134;-67
2023/07/06 09:43:37;;;;;;;7.40;4.70;;;;;;;25.75;49.88;96833.28;4958995;28;20043;-68
2023/07/06 09:46:04;;;;;;;11.55;5.57;;;;;;;26.09;48.16;96823.81;4968508;28;20431;-65
2023/07/06 09:48:32;;;;;;;11.07;5.35;;;;;;;26.31;47.85;96834.09;4965094;28;20078;-67
2023/07/06 09:51:11;;;;;;;10.43;5.57;;;;;;;26.32;47.99;96819.56;4963047;28;20043;-66
2023/07/06 09:53:48;;;;;;;11.20;5.93;;;;;;;26.50;46.95;96821.56;4962293;28;20074;-66
2023/07/06 09:56:14;;;;;;;9.55;5.18;;;;;;;26.54;46.87;96829.84;4957250;28;20057;-66
2023/07/06 09:58:41;;;;;;;9.80;5.30;;;;;;;25.48;48.18;96826.34;4962713;28;20047;-66
2023/07/06 10:01:21;;;;;;;9.20;5.78;;;;;;;24.03;50.95;96818.97;4957859;28;20043;-66
2023/07/06 10:03:53;;;;;;;9.68;5.43;;;;;;;24.35;50.27;96819.06;4962109;28;20049;-66
2023/07/06 10:06:47;;;;;;;7.32;5.25;;;;;;;24.41;49.77;96831.22;4958260;28;20049;-68
2023/07/06 10:09:20;;;;;;;12.02;5.13;;;;;;;24.72;48.76;96827.72;4957650;28;20081;-66
2023/07/06 10:11:53;;;;;;;9.50;5.60;;;;;;;24.45;50.43;96817.09;4963729;28;20043;-67
2023/07/06 10:14:21;;;;;;;9.07;5.53;;;;;;;25.24;50.55;96819.72;4958057;28;20046;-66
2023/07/06 10:17:02;;;;;;;8.63;5.35;;;;;;;25.49;48.15;96821.53;4962363;28;20488;-67
2023/07/06 10:19:32;;;;;;;8.70;4.72;;;;;;;25.64;47.00;96821.69;4959735;28;20051;-67
2023/07/06 10:22:06;;;;;;;10.02;5.63;;;;;;;25.69;47.68;96826.69;4945125;28;20043;-68
2023/07/06 10:24:41;;;;;;;13.27;5.93;;;;;;;25.42;48.93;96822.59;4963144;28;20039;-68
2023/07/06 10:27:17;;;;;;;8.43;5.18;;;;;;;24.80;49.06;96829.03;4950723;28;20462;-68
2023/07/06 10:29:50;;;;;;;7.90;5.40;;;;;;;24.37;50.58;96816.59;4963141;28;20388;-66
2023/07/06 10:32:26;;;;;;;11.48;5.05;;;;;;;24.66;50.87;96812.75;4958640;28;20049;-68
2023/07/06 10:35:01;;;;;;;8.93;4.90;;;;;;;24.98;48.77;96815.09;4964072;28;20062;-68
2023/07/06 10:37:28;;;;;;;6.53;4.50;;;;;;;25.33;47.72;96819.75;4959575;28;20097;-68
2023/07/06 10:40:00;;;;;;;11.30;4.63;;;;;;;25.45;47.30;96809.69;4944936;28;20068;-68
2023/07/06 10:42:28;;;;;;;11.70;5.43;;;;;;;25.25;46.35;96819.28;4958455;28;20478;-68
2023/07/06 10:44:58;;;;;;;10.05;5.40;;;;;;;25.46;47.18;96812.03;4962111;28;20051;-66
2023/07/06 10:47:44;;;;;;;9.90;4.70;;;;;;;25.96;46.22;96805.56;4958736;28;20078;-67
2023/07/06 10:50:26;;;;;;;7.90;4.75;;;;;;;25.23;45.91;96806.91;4958259;28;20540;-68
2023/07/06 10:53:03;;;;;;;9.25;5.25;;;;;;;25.11;47.52;96812.19;4962938;28;20122;-68
2023/07/06 10:55:35;;;;;;;10.00;5.32;;;;;;;24.63;48.82;96808.84;4973903;28;20130;-68
2023/07/06 10:58:24;;;;;;;10.32;5.82;;;;;;;24.17;49.88;96803.69;4971492;28;20037;-67
2023/07/06 11:00:52;;;;;;;11.10;5.13;;;;;;;24.49;49.70;96803.75;4962357;28;20046;-66
2023/07/06 11:03:23;;;;;;;8.68;5.05;;;;;;;24.38;48.29;96804.94;4957889;28;20043;-66
2023/07/06 11:06:06;;;;;;;7.50;4.32;;;;;;;24.41;47.77;96801.22;4962330;28;20039;-67
2023/07/06 11:09:01;;;;;;;7.85;4.63;;;;;;;24.42;47.07;96813.22;4963198;28;20464;-66
2023/07/06 11:11:28;;;;;;;8.05;4.20;;;;;;;24.67;46.04;96801.09;4962286;28;20066;-67
2023/07/06 11:13:53;;;;;;;11.02;4.50;;;;;;;24.42;45.04;96811.19;4966945;28;20053;-67
2023/07/06 11:16:41;;;;;;;8.18;3.78;;;;;;;25.09;45.27;96806.25;4961259;28;20038;-66
2023/07/06 11:19:16;;;;;;;6.28;3.63;;;;;;;25.37;42.97;96812.78;4960313;28;20043;-67
2023/07/06 11:21:54;;;;;;;6.65;4.18;;;;;;;25.54;43.37;96813.28;4966293;28;20047;-67
2023/07/06 11:24:29;;;;;;;6.13;3.90;;;;;;;25.54;42.40;96815.31;4961429;28;20754;-67
2023/07/06 11:27:06;;;;;;;8.88;4.38;;;;;;;25.24;43.58;96819.72;4955089;28;20322;-67
2023/07/06 11:29:33;;;;;;;6.82;4.30;;;;;;;24.93;44.17;96812.13;4951343;29;20142;-66
2023/07/06 11:32:16;;;;;;;7.78;4.25;;;;;;;24.53;43.88;96813.63;4952629;29;20086;-66
2023/07/06 11:35:14;;;;;;;7.18;3.78;;;;;;;24.49;44.83;96803.75;4962919;28;20129;-66
2023/07/06 11:37:54;;;;;;;7.25;3.65;;;;;;;24.88;42.21;96804.31;4901945;28;20125;-69
2023/07/06 11:40:45;;;;;;;5.88;3.42;;;;;;;24.66;42.84;96813.53;4941817;29;20122;-69